Time;durP1;ratioP1;P1;durP2;ratioP2;P2;SDS_P1;SDS_P2;PMS_P1;PMS_P2;Temp;Humidity;BMP_temperature;BMP_pressure;BME280_temperature;BME280_humidity;BME280_pressure;Samples;Min_cycle;Max_cycle;Signal;HPM_P1;HPM_P2
2023/03/01 00:00:37;;;;;;;37.13;13.90;;;;;;;;;;8431104;28;20051;-81
2023/03/01 00:04:57;;;;;;;34.65;12.93;;;;;;;;;;8431556;28;20048;-81
2023/03/01 00:09:00;;;;;;;33.15;14.10;;;;;;;;;;8404927;28;20123;-80
2023/03/01 00:13:05;;;;;;;25.52;12.55;;;;;;;;;;8431552;28;20436;-79
2023/03/01 00:17:08;;;;;;;32.85;13.10;;;;;;;;;;8431077;28;20512;-80
2023/03/01 00:21:11;;;;;;;22.50;12.43;;;;;;;;;;8429371;28;20056;-81
2023/03/01 00:25:14;;;;;;;32.22;13.40;;;;;;;;;;8430952;28;20044;-78
2023/03/01 00:29:18;;;;;;;37.97;15.15;;;;;;;;;;8430242;28;20132;-80
2023/03/01 00:33:21;;;;;;;33.85;13.63;;;;;;;;;;8404554;28;20062;-80
2023/03/01 00:37:25;;;;;;;18.42;9.30;;;;;;;;;;8430458;28;20481;-81
2023/03/01 00:41:28;;;;;;;27.55;13.70;;;;;;;;;;8430375;28;20131;-80
2023/03/01 00:45:34;;;;;;;31.45;13.35;;;;;;;;;;8412278;28;20119;-78
2023/03/01 00:49:37;;;;;;;28.35;11.80;;;;;;;;;;8428865;28;20052;-79
2023/03/01 00:53:40;;;;;;;23.88;12.85;;;;;;;;;;8424665;28;20052;-80
2023/03/01 00:57:43;;;;;;;41.42;17.23;;;;;;;;;;8429891;28;20122;-80
2023/03/01 01:01:47;;;;;;;30.05;12.45;;;;;;;;;;8419826;28;20055;-80
2023/03/01 01:05:50;;;;;;;46.25;17.95;;;;;;;;;;8429343;28;20078;-80
2023/03/01 01:09:53;;;;;;;58.53;23.88;;;;;;;;;;8429266;28;20097;-80
2023/03/01 01:13:57;;;;;;;45.40;16.70;;;;;;;;;;8429238;28;20036;-82
2023/03/01 01:18:02;;;;;;;41.67;16.48;;;;;;;;;;8428931;28;20047;-80
2023/03/01 01:22:05;;;;;;;40.08;15.23;;;;;;;;;;8429070;28;20119;-80
2023/03/01 01:26:08;;;;;;;34.03;15.68;;;;;;;;;;8428418;28;20123;-81
2023/03/01 01:30:12;;;;;;;36.72;15.40;;;;;;;;;;8428873;28;20044;-80
2023/03/01 01:34:21;;;;;;;44.25;17.52;;;;;;;;;;8427570;28;20526;-78
2023/03/01 01:38:24;;;;;;;31.80;14.20;;;;;;;;;;8429019;28;20072;-78
2023/03/01 01:42:27;;;;;;;35.25;16.15;;;;;;;;;;8428875;28;20071;-80
2023/03/01 01:46:32;;;;;;;36.05;15.45;;;;;;;;;;8428616;28;20060;-81
2023/03/01 01:50:40;;;;;;;30.58;14.70;;;;;;;;;;8428394;28;20051;-81
2023/03/01 01:54:47;;;;;;;32.80;14.40;;;;;;;;;;8429307;28;20489;-78
2023/03/01 01:58:51;;;;;;;26.30;11.77;;;;;;;;;;8428627;28;20879;-81
2023/03/01 02:02:58;;;;;;;32.78;13.60;;;;;;;;;;8428620;28;20060;-79
2023/03/01 02:07:08;;;;;;;29.75;15.15;;;;;;;;;;8428858;28;20044;-80
2023/03/01 02:11:14;;;;;;;25.67;9.60;;;;;;;;;;8428829;28;20515;-80
2023/03/01 02:15:17;;;;;;;40.95;15.45;;;;;;;;;;8409360;28;20052;-78
2023/03/01 02:19:32;;;;;;;49.45;15.73;;;;;;;;;;8413548;28;20041;-80
2023/03/01 02:23:37;;;;;;;36.70;15.90;;;;;;;;;;8417445;28;20453;-81
2023/03/01 02:27:50;;;;;;;41.03;16.42;;;;;;;;;;8431067;28;20044;-80
2023/03/01 02:31:57;;;;;;;39.65;16.77;;;;;;;;;;8434644;28;20074;-82
2023/03/01 02:36:03;;;;;;;25.65;12.85;;;;;;;;;;8434215;28;20559;-80
2023/03/01 02:40:11;;;;;;;44.30;17.40;;;;;;;;;;8429802;28;20056;-80
2023/03/01 02:44:14;;;;;;;47.03;17.38;;;;;;;;;;8421998;28;20046;-79
2023/03/01 02:48:19;;;;;;;51.25;18.23;;;;;;;;;;8414452;28;20066;-81
2023/03/01 02:52:45;;;;;;;31.90;14.38;;;;;;;;;;8411390;28;20043;-84
2023/03/01 02:56:49;;;;;;;41.55;16.08;;;;;;;;;;8402430;28;20037;-81
2023/03/01 03:00:52;;;;;;;30.05;12.77;;;;;;;;;;8415527;28;20048;-80
2023/03/01 03:04:57;;;;;;;42.42;16.65;;;;;;;;;;8423787;28;20040;-81
2023/03/01 03:09:00;;;;;;;39.65;14.82;;;;;;;;;;8431472;28;20044;-80
2023/03/01 03:13:06;;;;;;;39.28;16.58;;;;;;;;;;8416170;28;20048;-82
2023/03/01 03:17:08;;;;;;;38.53;13.48;;;;;;;;;;8426027;28;20048;-80
2023/03/01 03:21:14;;;;;;;36.33;15.18;;;;;;;;;;8432796;28;20051;-80
2023/03/01 03:25:18;;;;;;;42.47;17.30;;;;;;;;;;8425989;28;20045;-79
2023/03/01 03:29:21;;;;;;;58.03;23.40;;;;;;;;;;8400565;28;20415;-79
2023/03/01 03:33:23;;;;;;;40.75;16.00;;;;;;;;;;8402364;28;20055;-80
2023/03/01 03:41:48;;;;;;;40.25;16.42;;;;;;;;;;8426967;28;20051;-80
2023/03/01 03:45:52;;;;;;;34.42;16.40;;;;;;;;;;8417038;28;20044;-79
2023/03/01 03:49:56;;;;;;;46.15;19.65;;;;;;;;;;8420500;28;20123;-79
2023/03/01 03:54:01;;;;;;;43.45;18.38;;;;;;;;;;8431299;28;20123;-79
2023/03/01 03:58:06;;;;;;;51.92;19.23;;;;;;;;;;8431753;28;20128;-79
2023/03/01 04:02:09;;;;;;;38.17;16.15;;;;;;;;;;8398314;28;20127;-81
2023/03/01 04:06:11;;;;;;;43.85;17.05;;;;;;;;;;8400513;28;20048;-81
2023/03/01 04:10:19;;;;;;;47.33;20.27;;;;;;;;;;8429083;28;20577;-80
2023/03/01 04:14:22;;;;;;;60.03;22.88;;;;;;;;;;8420677;28;20094;-80
2023/03/01 04:18:25;;;;;;;57.92;20.77;;;;;;;;;;8396473;28;20044;-80
2023/03/01 04:22:29;;;;;;;53.05;20.45;;;;;;;;;;8430933;28;20733;-80
2023/03/01 04:26:33;;;;;;;61.95;24.42;;;;;;;;;;8430877;28;20046;-81
2023/03/01 04:30:36;;;;;;;54.72;21.50;;;;;;;;;;8430423;28;20047;-80
2023/03/01 04:34:39;;;;;;;53.65;20.27;;;;;;;;;;8430317;28;20048;-79
2023/03/01 04:38:47;;;;;;;53.88;21.90;;;;;;;;;;8408413;28;20044;-79
2023/03/01 04:42:51;;;;;;;47.38;19.00;;;;;;;;;;8413178;28;20047;-83
2023/03/01 04:46:54;;;;;;;49.65;18.52;;;;;;;;;;8406829;28;20057;-83
2023/03/01 04:50:57;;;;;;;57.58;21.30;;;;;;;;;;8404220;28;20040;-83
2023/03/01 04:55:00;;;;;;;50.67;21.08;;;;;;;;;;8411805;28;20043;-78
2023/03/01 04:59:05;;;;;;;51.97;20.73;;;;;;;;;;8414918;28;20044;-77
2023/03/01 05:03:10;;;;;;;47.97;20.17;;;;;;;;;;8406411;28;20560;-81
2023/03/01 05:07:19;;;;;;;53.58;20.60;;;;;;;;;;8417210;28;20513;-79
2023/03/01 05:11:22;;;;;;;57.78;24.98;;;;;;;;;;8408871;28;20091;-80
2023/03/01 05:15:27;;;;;;;58.97;23.08;;;;;;;;;;8424365;28;20479;-81
2023/03/01 05:19:30;;;;;;;73.28;29.70;;;;;;;;;;8425671;28;20046;-81
2023/03/01 05:23:33;;;;;;;94.45;34.17;;;;;;;;;;8416651;28;20040;-82
2023/03/01 05:27:36;;;;;;;74.18;31.27;;;;;;;;;;8415139;28;20047;-83
2023/03/01 05:31:41;;;;;;;57.05;24.02;;;;;;;;;;8428049;28;20498;-85
2023/03/01 05:35:45;;;;;;;57.80;26.27;;;;;;;;;;8425837;28;20119;-80
2023/03/01 05:39:50;;;;;;;55.95;25.08;;;;;;;;;;8392786;28;20040;-80
2023/03/01 05:43:53;;;;;;;49.17;20.42;;;;;;;;;;8387106;28;20045;-81
2023/03/01 05:47:57;;;;;;;53.17;26.17;;;;;;;;;;8396872;28;20052;-80
2023/03/01 05:52:00;;;;;;;64.80;27.02;;;;;;;;;;8397267;28;20047;-80
2023/03/01 05:56:04;;;;;;;72.45;30.60;;;;;;;;;;8397381;28;20123;-84
2023/03/01 06:00:09;;;;;;;51.17;19.92;;;;;;;;;;8392743;28;20048;-81
2023/03/01 06:04:13;;;;;;;63.97;24.35;;;;;;;;;;8430388;28;20046;-80
2023/03/01 06:08:16;;;;;;;72.43;27.17;;;;;;;;;;8426104;28;20436;-80
2023/03/01 06:12:19;;;;;;;96.22;35.78;;;;;;;;;;8422735;28;20053;-79
2023/03/01 06:16:21;;;;;;;88.57;32.67;;;;;;;;;;8418046;28;20063;-79
2023/03/01 06:20:28;;;;;;;48.50;18.73;;;;;;;;;;8425576;28;20127;-79
2023/03/01 06:24:30;;;;;;;80.30;31.85;;;;;;;;;;8421239;28;20057;-81
2023/03/01 06:28:33;;;;;;;27.40;12.73;;;;;;;;;;8433412;28;20044;-80
2023/03/01 06:32:36;;;;;;;75.32;27.83;;;;;;;;;;8427277;28;20044;-80
2023/03/01 06:36:41;;;;;;;49.28;20.55;;;;;;;;;;8405210;28;20044;-79
2023/03/01 06:40:44;;;;;;;24.02;11.20;;;;;;;;;;8425774;28;20398;-81
2023/03/01 06:44:47;;;;;;;62.45;20.35;;;;;;;;;;8427895;28;20044;-81
2023/03/01 06:48:50;;;;;;;41.15;16.15;;;;;;;;;;8408294;28;20135;-80
2023/03/01 06:52:58;;;;;;;57.63;24.98;;;;;;;;;;8432692;28;20043;-81
2023/03/01 06:57:01;;;;;;;43.88;17.88;;;;;;;;;;8421408;28;20076;-80
2023/03/01 07:01:07;;;;;;;36.90;16.73;;;;;;;;;;8419700;28;20040;-81
2023/03/01 07:05:10;;;;;;;51.00;20.30;;;;;;;;;;8406803;28;20399;-83
2023/03/01 07:09:19;;;;;;;45.58;23.27;;;;;;;;;;8398293;28;20779;-81
2023/03/01 07:13:22;;;;;;;53.33;25.65;;;;;;;;;;8403671;28;20515;-82
2023/03/01 07:17:25;;;;;;;58.10;30.80;;;;;;;;;;8417490;28;20049;-82
2023/03/01 07:21:27;;;;;;;49.40;26.05;;;;;;;;;;8411485;28;20084;-82
2023/03/01 07:25:33;;;;;;;61.17;33.00;;;;;;;;;;8412031;28;20154;-84
2023/03/01 07:29:36;;;;;;;48.55;27.42;;;;;;;;;;8374727;28;20051;-84
2023/03/01 07:33:39;;;;;;;51.13;26.05;;;;;;;;;;8396654;28;20047;-83
2023/03/01 07:37:42;;;;;;;62.22;32.08;;;;;;;;;;8395548;28;20048;-83
2023/03/01 07:41:47;;;;;;;75.47;34.92;;;;;;;;;;8394260;28;20078;-84
2023/03/01 07:45:51;;;;;;;79.57;38.50;;;;;;;;;;8394569;28;20051;-81
2023/03/01 07:49:54;;;;;;;70.63;36.35;;;;;;;;;;8408637;28;20589;-82
2023/03/01 07:53:57;;;;;;;79.45;39.85;;;;;;;;;;8381193;28;20064;-87
2023/03/01 07:58:02;;;;;;;67.75;37.13;;;;;;;;;;8392304;28;20053;-85
2023/03/01 08:02:05;;;;;;;91.88;43.22;;;;;;;;;;8388777;28;20052;-82
2023/03/01 08:06:10;;;;;;;72.18;39.90;;;;;;;;;;8394477;28;20084;-84
2023/03/01 08:10:13;;;;;;;80.45;40.90;;;;;;;;;;8377171;28;20067;-84
2023/03/01 08:14:17;;;;;;;81.50;42.00;;;;;;;;;;8403543;28;20052;-83
2023/03/01 08:18:21;;;;;;;83.88;42.05;;;;;;;;;;8393516;28;20639;-80
2023/03/01 08:22:26;;;;;;;81.82;43.47;;;;;;;;;;8399234;28;20179;-81
2023/03/01 08:26:29;;;;;;;74.80;38.33;;;;;;;;;;8377843;28;20072;-80
2023/03/01 08:30:36;;;;;;;55.08;29.73;;;;;;;;;;8398164;28;20049;-80
2023/03/01 08:34:40;;;;;;;40.10;21.58;;;;;;;;;;8396644;28;20048;-80
2023/03/01 08:38:43;;;;;;;36.38;20.50;;;;;;;;;;8402945;28;20052;-82
2023/03/01 08:42:49;;;;;;;36.35;20.80;;;;;;;;;;8382969;28;20062;-81
2023/03/01 08:46:55;;;;;;;35.05;20.05;;;;;;;;;;8389073;28;20067;-81
2023/03/01 08:50:58;;;;;;;31.30;18.00;;;;;;;;;;8389830;28;20169;-81
2023/03/01 08:55:02;;;;;;;34.30;19.45;;;;;;;;;;8390345;28;20060;-80
2023/03/01 08:59:05;;;;;;;33.97;20.40;;;;;;;;;;8396010;28;20048;-81
2023/03/01 09:03:11;;;;;;;36.60;18.67;;;;;;;;;;8371331;28;20057;-81
2023/03/01 09:07:14;;;;;;;31.80;17.80;;;;;;;;;;8382624;28;20044;-81
2023/03/01 09:11:19;;;;;;;27.75;17.75;;;;;;;;;;8394803;28;20041;-81
2023/03/01 09:15:22;;;;;;;29.88;17.65;;;;;;;;;;8385172;28;21438;-81
2023/03/01 09:19:27;;;;;;;31.85;18.50;;;;;;;;;;8405365;28;20715;-80
2023/03/01 09:23:31;;;;;;;26.15;15.43;;;;;;;;;;8392524;28;20689;-81
2023/03/01 09:27:34;;;;;;;25.52;15.10;;;;;;;;;;8395619;28;20143;-81
2023/03/01 09:31:37;;;;;;;25.05;15.63;;;;;;;;;;8392005;28;20047;-81
2023/03/01 09:35:47;;;;;;;26.65;15.32;;;;;;;;;;8387274;28;20094;-80
2023/03/01 09:39:53;;;;;;;31.05;16.00;;;;;;;;;;8386288;28;20404;-81
2023/03/01 09:44:03;;;;;;;23.42;14.07;;;;;;;;;;8392983;28;20130;-80
2023/03/01 09:48:14;;;;;;;27.55;15.85;;;;;;;;;;8382567;28;20056;-80
2023/03/01 09:52:29;;;;;;;29.48;15.10;;;;;;;;;;8407841;28;20048;-81
2023/03/01 09:56:37;;;;;;;57.35;27.90;;;;;;;;;;8395911;28;20475;-81
2023/03/01 10:00:44;;;;;;;24.55;14.80;;;;;;;;;;8382118;28;20132;-81
2023/03/01 10:04:49;;;;;;;26.40;15.45;;;;;;;;;;8398053;28;20065;-80
2023/03/01 10:08:57;;;;;;;28.73;15.98;;;;;;;;;;8423853;28;20074;-81
2023/03/01 10:13:05;;;;;;;26.80;14.07;;;;;;;;;;8430542;28;20089;-80
2023/03/01 10:17:26;;;;;;;26.45;14.30;;;;;;;;;;8432475;28;20044;-80
2023/03/01 10:21:31;;;;;;;21.15;12.35;;;;;;;;;;8432153;28;20487;-79
2023/03/01 10:25:48;;;;;;;23.20;12.65;;;;;;;;;;8431694;28;20044;-79
2023/03/01 10:30:00;;;;;;;26.08;12.90;;;;;;;;;;8430717;28;20044;-79
2023/03/01 10:34:03;;;;;;;24.23;12.88;;;;;;;;;;8428632;28;20101;-79
2023/03/01 10:38:08;;;;;;;27.70;14.85;;;;;;;;;;8428531;28;20183;-81
2023/03/01 10:42:31;;;;;;;24.65;11.18;;;;;;;;;;8434042;28;20035;-79
2023/03/01 10:46:36;;;;;;;18.92;9.95;;;;;;;;;;8432748;28;20523;-78
2023/03/01 10:50:41;;;;;;;22.65;9.63;;;;;;;;;;8421777;28;20053;-79
2023/03/01 10:54:53;;;;;;;24.48;11.40;;;;;;;;;;8434939;28;20036;-80
2023/03/01 10:59:04;;;;;;;16.40;7.72;;;;;;;;;;8435081;28;20079;-81
2023/03/01 11:03:13;;;;;;;22.60;9.18;;;;;;;;;;8430098;28;20036;-80
2023/03/01 11:07:16;;;;;;;21.73;11.18;;;;;;;;;;8430757;28;20047;-80
2023/03/01 11:11:25;;;;;;;22.55;9.32;;;;;;;;;;8418677;28;20148;-80
2023/03/01 11:15:30;;;;;;;14.20;7.03;;;;;;;;;;8400888;28;20073;-79
2023/03/01 11:19:34;;;;;;;14.57;6.07;;;;;;;;;;8396010;28;20048;-79
2023/03/01 11:23:40;;;;;;;16.55;7.95;;;;;;;;;;8384607;28;20151;-78
2023/03/01 11:27:46;;;;;;;17.73;8.73;;;;;;;;;;8392119;28;20060;-80
2023/03/01 11:31:51;;;;;;;16.02;7.25;;;;;;;;;;8404073;28;20059;-80
2023/03/01 11:36:01;;;;;;;16.35;7.25;;;;;;;;;;8385113;28;20407;-80
2023/03/01 11:40:13;;;;;;;15.55;6.72;;;;;;;;;;8375339;28;20090;-79
2023/03/01 11:44:21;;;;;;;15.63;7.63;;;;;;;;;;8394992;28;20445;-79
2023/03/01 11:48:52;;;;;;;17.33;8.40;;;;;;;;;;8396815;28;20066;-80
2023/03/01 11:53:20;;;;;;;13.50;7.68;;;;;;;;;;8384813;28;20324;-82
2023/03/01 11:57:38;;;;;;;17.95;7.95;;;;;;;;;;8388140;28;20044;-81
2023/03/01 12:01:59;;;;;;;19.30;8.93;;;;;;;;;;8376746;28;20109;-81
2023/03/01 12:06:23;;;;;;;29.45;10.13;;;;;;;;;;8394844;28;20051;-82
2023/03/01 12:10:29;;;;;;;16.58;8.35;;;;;;;;;;8395546;28;20054;-81
2023/03/01 12:14:56;;;;;;;21.70;9.25;;;;;;;;;;8395775;28;20563;-80
2023/03/01 12:19:13;;;;;;;17.35;8.27;;;;;;;;;;8396279;28;20385;-81
2023/03/01 12:23:34;;;;;;;16.73;8.02;;;;;;;;;;8409894;28;20392;-85
2023/03/01 12:28:02;;;;;;;25.27;9.27;;;;;;;;;;8388671;28;20041;-81
2023/03/01 12:32:23;;;;;;;28.40;11.60;;;;;;;;;;8379730;28;20044;-81
2023/03/01 12:36:38;;;;;;;25.17;10.27;;;;;;;;;;8390509;28;20543;-80
2023/03/01 12:41:08;;;;;;;18.48;9.45;;;;;;;;;;8394859;28;20048;-80
2023/03/01 12:45:38;;;;;;;21.88;10.15;;;;;;;;;;8381453;28;20430;-80
2023/03/01 12:49:49;;;;;;;19.77;8.18;;;;;;;;;;8363356;28;20102;-80
2023/03/01 12:53:54;;;;;;;20.23;8.98;;;;;;;;;;8386963;28;20373;-79
2023/03/01 12:58:09;;;;;;;23.35;9.30;;;;;;;;;;8383556;28;20053;-88
2023/03/01 13:02:22;;;;;;;23.15;10.77;;;;;;;;;;8389330;28;20045;-83
2023/03/01 13:06:37;;;;;;;27.58;11.38;;;;;;;;;;8378913;28;20052;-82
2023/03/01 13:10:47;;;;;;;24.30;8.77;;;;;;;;;;8398931;28;20048;-80
2023/03/01 13:14:56;;;;;;;23.60;10.93;;;;;;;;;;8394639;28;20399;-81
2023/03/01 13:19:16;;;;;;;18.48;8.75;;;;;;;;;;8395735;28;20097;-80
2023/03/01 13:23:28;;;;;;;27.83;11.18;;;;;;;;;;8398025;28;20396;-86
2023/03/01 13:27:32;;;;;;;24.48;11.75;;;;;;;;;;8422961;28;20112;-80
2023/03/01 13:32:03;;;;;;;27.63;12.25;;;;;;;;;;8425903;28;20131;-80
2023/03/01 13:36:13;;;;;;;25.88;11.80;;;;;;;;;;8399876;28;20072;-81
2023/03/01 13:40:52;;;;;;;25.67;11.98;;;;;;;;;;8395264;28;20048;-80
2023/03/01 13:44:59;;;;;;;23.75;11.88;;;;;;;;;;8393436;28;20135;-86
2023/03/01 13:49:02;;;;;;;23.50;11.05;;;;;;;;;;8394781;28;20061;-79
2023/03/01 13:53:08;;;;;;;20.80;10.32;;;;;;;;;;8395307;28;20447;-81
2023/03/01 13:57:21;;;;;;;20.45;9.35;;;;;;;;;;8413140;28;20075;-81
2023/03/01 14:01:29;;;;;;;22.92;11.70;;;;;;;;;;8402779;28;20056;-80
2023/03/01 14:05:33;;;;;;;19.58;9.88;;;;;;;;;;8415083;28;20048;-80
2023/03/01 14:09:41;;;;;;;22.17;9.68;;;;;;;;;;8403241;28;20059;-82
2023/03/01 14:13:59;;;;;;;20.80;9.05;;;;;;;;;;8389560;28;20041;-81
2023/03/01 14:18:07;;;;;;;20.67;9.45;;;;;;;;;;8381414;28;20123;-81
2023/03/01 14:22:20;;;;;;;20.13;8.65;;;;;;;;;;8379043;28;20055;-84
2023/03/01 14:26:25;;;;;;;25.77;10.23;;;;;;;;;;8383517;28;20056;-84
2023/03/01 14:30:32;;;;;;;25.27;11.13;;;;;;;;;;8385634;28;20075;-82
2023/03/01 14:34:35;;;;;;;23.40;11.38;;;;;;;;;;8384684;28;20044;-82
2023/03/01 14:38:39;;;;;;;23.95;11.70;;;;;;;;;;8384100;28;20073;-81
2023/03/01 14:42:44;;;;;;;22.52;10.98;;;;;;;;;;8387469;28;20040;-80
2023/03/01 14:46:47;;;;;;;33.00;14.93;;;;;;;;;;8399201;28;20117;-81
2023/03/01 14:50:52;;;;;;;32.00;13.35;;;;;;;;;;8396572;28;20162;-79
2023/03/01 14:54:55;;;;;;;20.05;9.25;;;;;;;;;;8420955;28;20544;-77
2023/03/01 14:59:02;;;;;;;19.75;9.05;;;;;;;;;;8434043;28;20093;-80
2023/03/01 15:03:12;;;;;;;21.33;8.80;;;;;;;;;;8420224;28;20441;-79
2023/03/01 15:07:16;;;;;;;22.05;8.60;;;;;;;;;;8418196;28;20049;-79
2023/03/01 15:11:24;;;;;;;20.50;9.88;;;;;;;;;;8414134;28;20068;-79
2023/03/01 15:15:39;;;;;;;19.75;9.75;;;;;;;;;;8413857;28;20090;-79
2023/03/01 15:19:42;;;;;;;22.23;9.85;;;;;;;;;;8412504;28;20051;-81
2023/03/01 15:23:51;;;;;;;21.63;9.23;;;;;;;;;;8419830;28;20048;-79
2023/03/01 15:27:56;;;;;;;22.13;9.77;;;;;;;;;;8406672;28;20055;-80
2023/03/01 15:32:03;;;;;;;21.27;10.10;;;;;;;;;;8401164;28;20573;-79
2023/03/01 15:36:42;;;;;;;20.17;9.63;;;;;;;;;;8426590;28;20055;-80
2023/03/01 15:40:51;;;;;;;24.23;10.25;;;;;;;;;;8419706;28;20581;-80
2023/03/01 15:45:10;;;;;;;24.67;10.05;;;;;;;;;;8391492;28;20090;-77
2023/03/01 15:49:29;;;;;;;22.17;9.88;;;;;;;;;;8427763;28;20052;-82
2023/03/01 15:53:33;;;;;;;25.15;10.00;;;;;;;;;;8432507;28;20054;-79
2023/03/01 15:57:36;;;;;;;32.08;13.82;;;;;;;;;;8385925;28;20049;-78
2023/03/01 16:01:39;;;;;;;28.10;11.70;;;;;;;;;;8412871;28;20121;-78
2023/03/01 16:05:44;;;;;;;29.17;12.35;;;;;;;;;;8405255;28;20047;-80
2023/03/01 16:09:47;;;;;;;30.10;12.80;;;;;;;;;;8432679;28;20472;-78
2023/03/01 16:13:50;;;;;;;25.13;10.80;;;;;;;;;;8431838;28;20063;-78
2023/03/01 16:17:54;;;;;;;24.73;10.73;;;;;;;;;;8406538;28;20041;-80
2023/03/01 16:22:01;;;;;;;28.85;10.95;;;;;;;;;;8394653;28;20048;-80
2023/03/01 16:26:04;;;;;;;23.45;9.32;;;;;;;;;;8418447;28;20399;-79
2023/03/01 16:30:09;;;;;;;21.02;9.70;;;;;;;;;;8412661;28;20045;-78
2023/03/01 16:34:13;;;;;;;17.55;8.13;;;;;;;;;;8395426;28;20071;-80
2023/03/01 16:38:17;;;;;;;19.42;8.70;;;;;;;;;;8405476;28;20058;-78
2023/03/01 16:42:21;;;;;;;24.92;10.52;;;;;;;;;;8396360;28;20056;-81
2023/03/01 16:46:27;;;;;;;20.75;9.38;;;;;;;;;;8382074;28;20500;-79
2023/03/01 16:50:31;;;;;;;20.80;9.23;;;;;;;;;;8386409;28;20399;-80
2023/03/01 16:54:36;;;;;;;17.55;9.88;;;;;;;;;;8388351;28;20036;-80
2023/03/01 16:58:40;;;;;;;24.00;11.07;;;;;;;;;;8384485;28;20082;-80
2023/03/01 17:02:46;;;;;;;49.05;18.35;;;;;;;;;;8381088;28;20043;-78
2023/03/01 17:06:50;;;;;;;80.25;29.42;;;;;;;;;;8386003;28;20043;-80
2023/03/01 17:11:04;;;;;;;121.30;39.47;;;;;;;;;;8380021;28;20068;-81
2023/03/01 17:15:09;;;;;;;156.82;56.03;;;;;;;;;;8383171;28;20486;-80
2023/03/01 17:19:17;;;;;;;137.50;45.72;;;;;;;;;;8377194;28;20564;-82
2023/03/01 17:23:22;;;;;;;84.22;30.02;;;;;;;;;;8379403;28;20060;-83
2023/03/01 17:27:28;;;;;;;115.88;34.75;;;;;;;;;;8383767;28;20044;-80
2023/03/01 17:31:33;;;;;;;90.70;29.50;;;;;;;;;;8390346;28;20045;-78
2023/03/01 17:35:38;;;;;;;54.92;20.10;;;;;;;;;;8382178;28;20401;-81
2023/03/01 17:39:41;;;;;;;48.63;19.13;;;;;;;;;;8386539;28;20052;-81
2023/03/01 17:43:46;;;;;;;44.13;17.17;;;;;;;;;;8378323;28;20114;-82
2023/03/01 17:47:50;;;;;;;49.30;17.45;;;;;;;;;;8384093;28;20510;-81
2023/03/01 17:51:57;;;;;;;53.33;18.55;;;;;;;;;;8381489;28;20052;-82
2023/03/01 17:56:02;;;;;;;37.72;14.32;;;;;;;;;;8372538;28;20053;-79
2023/03/01 18:00:12;;;;;;;52.72;19.52;;;;;;;;;;8381280;28;20063;-80
2023/03/01 18:04:17;;;;;;;40.22;15.25;;;;;;;;;;8402935;28;20456;-79
2023/03/01 18:08:22;;;;;;;45.47;16.25;;;;;;;;;;8378579;28;20052;-80
2023/03/01 18:12:25;;;;;;;42.30;15.85;;;;;;;;;;8372700;28;20045;-80
2023/03/01 18:16:34;;;;;;;73.82;24.58;;;;;;;;;;8389530;28;20048;-81
2023/03/01 18:20:40;;;;;;;30.13;11.63;;;;;;;;;;8384859;28;20416;-81
2023/03/01 18:24:45;;;;;;;33.47;11.70;;;;;;;;;;8394334;28;20036;-81
2023/03/01 18:28:51;;;;;;;24.83;10.82;;;;;;;;;;8379231;28;20163;-79
2023/03/01 18:32:57;;;;;;;36.03;16.02;;;;;;;;;;8385104;28;20068;-79
2023/03/01 18:37:02;;;;;;;84.28;26.80;;;;;;;;;;8385183;28;20109;-80
2023/03/01 18:41:06;;;;;;;31.35;17.02;;;;;;;;;;8381305;28;20044;-80
2023/03/01 18:45:13;;;;;;;33.97;16.98;;;;;;;;;;8387084;28;20052;-79
2023/03/01 18:49:20;;;;;;;34.70;16.10;;;;;;;;;;8373522;28;20700;-81
2023/03/01 18:53:28;;;;;;;35.80;14.90;;;;;;;;;;8369635;28;20052;-80
2023/03/01 18:57:33;;;;;;;26.60;12.63;;;;;;;;;;8377323;28;20041;-79
2023/03/01 19:01:38;;;;;;;25.65;11.23;;;;;;;;;;8387465;28;20052;-79
2023/03/01 19:05:47;;;;;;;23.42;9.48;;;;;;;;;;8383340;28;20052;-81
2023/03/01 19:09:51;;;;;;;19.73;8.68;;;;;;;;;;8383556;28;20048;-81
2023/03/01 19:13:59;;;;;;;29.05;12.27;;;;;;;;;;8384318;28;20605;-80
2023/03/01 19:18:08;;;;;;;36.83;13.35;;;;;;;;;;8382734;28;20135;-81
2023/03/01 19:22:14;;;;;;;153.32;31.73;;;;;;;;;;8377129;28;20574;-81
2023/03/01 19:26:19;;;;;;;27.77;12.30;;;;;;;;;;8378889;28;20045;-80
2023/03/01 19:30:26;;;;;;;31.20;11.80;;;;;;;;;;8391834;28;20064;-78
2023/03/01 19:34:34;;;;;;;25.85;13.35;;;;;;;;;;8428746;28;20046;-79
2023/03/01 19:38:45;;;;;;;55.88;21.02;;;;;;;;;;8430230;28;20380;-79
2023/03/01 19:42:51;;;;;;;97.60;28.45;;;;;;;;;;8429629;28;20093;-81
2023/03/01 19:46:58;;;;;;;69.70;22.20;;;;;;;;;;8414720;28;20139;-78
2023/03/01 19:51:04;;;;;;;63.17;23.08;;;;;;;;;;8410811;28;20044;-77
2023/03/01 19:55:18;;;;;;;109.70;34.80;;;;;;;;;;8410411;28;20051;-79
2023/03/01 19:59:26;;;;;;;39.78;18.98;;;;;;;;;;8411564;28;20044;-81
2023/03/01 20:03:33;;;;;;;43.75;17.75;;;;;;;;;;8415008;28;20040;-79
2023/03/01 20:07:39;;;;;;;91.60;23.40;;;;;;;;;;8415389;28;20059;-82
2023/03/01 20:11:44;;;;;;;41.67;18.75;;;;;;;;;;8406900;28;20044;-79
2023/03/01 20:16:16;;;;;;;50.00;18.42;;;;;;;;;;8404437;28;20044;-80
2023/03/01 20:20:28;;;;;;;42.42;16.27;;;;;;;;;;8412743;28;20048;-78
2023/03/01 20:24:35;;;;;;;36.53;15.27;;;;;;;;;;8408088;28;20491;-81
2023/03/01 20:28:41;;;;;;;71.28;22.67;;;;;;;;;;8423668;28;20045;-79
2023/03/01 20:32:49;;;;;;;111.75;36.05;;;;;;;;;;8414635;28;20044;-79
2023/03/01 20:36:57;;;;;;;197.88;53.10;;;;;;;;;;8418746;28;20063;-79
2023/03/01 20:41:08;;;;;;;266.67;63.42;;;;;;;;;;8429076;28;20403;-76
2023/03/01 20:45:17;;;;;;;59.65;21.92;;;;;;;;;;8418089;28;20131;-80
2023/03/01 20:49:25;;;;;;;367.25;93.57;;;;;;;;;;8413169;28;20415;-82
2023/03/01 20:53:57;;;;;;;207.10;55.65;;;;;;;;;;8407860;28;20041;-80
2023/03/01 20:58:01;;;;;;;48.13;21.75;;;;;;;;;;8399407;28;20068;-81
2023/03/01 21:02:07;;;;;;;133.27;33.80;;;;;;;;;;8409303;28;20055;-82
2023/03/01 21:06:12;;;;;;;48.42;18.08;;;;;;;;;;8408589;28;20147;-76
2023/03/01 21:10:17;;;;;;;41.15;16.58;;;;;;;;;;8420613;28;20058;-79
2023/03/01 21:14:23;;;;;;;48.40;18.90;;;;;;;;;;8418139;28;20504;-79
2023/03/01 21:18:29;;;;;;;47.33;19.95;;;;;;;;;;8407327;28;20052;-80
2023/03/01 21:22:33;;;;;;;46.30;17.65;;;;;;;;;;8416642;28;20550;-79
2023/03/01 21:26:37;;;;;;;27.75;11.40;;;;;;;;;;8428874;28;20054;-82
2023/03/01 21:30:41;;;;;;;43.60;16.73;;;;;;;;;;8429815;28;20067;-79
2023/03/01 21:34:46;;;;;;;81.72;26.23;;;;;;;;;;8429118;28;20498;-80
2023/03/01 21:38:50;;;;;;;84.15;31.17;;;;;;;;;;8428657;28;20119;-80
2023/03/01 21:42:53;;;;;;;89.15;31.10;;;;;;;;;;8428987;28;20073;-80
2023/03/01 21:46:57;;;;;;;38.40;18.90;;;;;;;;;;8428561;28;20060;-78
2023/03/01 21:51:03;;;;;;;40.15;16.65;;;;;;;;;;8429274;28;20507;-79
2023/03/01 21:55:06;;;;;;;66.50;24.15;;;;;;;;;;8428855;28;20052;-78
2023/03/01 21:59:13;;;;;;;45.13;20.63;;;;;;;;;;8428527;28;20075;-79
2023/03/01 22:03:16;;;;;;;209.45;49.72;;;;;;;;;;8428625;28;20495;-77
2023/03/01 22:07:20;;;;;;;45.55;20.77;;;;;;;;;;8413927;28;20052;-78
2023/03/01 22:11:24;;;;;;;52.03;21.60;;;;;;;;;;8428970;28;20494;-79
2023/03/01 22:15:27;;;;;;;55.85;21.70;;;;;;;;;;8402474;28;20054;-78
2023/03/01 22:19:31;;;;;;;99.75;32.67;;;;;;;;;;8428756;28;20047;-77
2023/03/01 22:23:36;;;;;;;112.50;36.78;;;;;;;;;;8428228;28;20055;-78
2023/03/01 22:27:39;;;;;;;89.28;30.88;;;;;;;;;;8428794;28;20486;-78
2023/03/01 22:31:42;;;;;;;59.90;22.63;;;;;;;;;;8428342;28;20068;-77
2023/03/01 22:35:45;;;;;;;72.00;22.73;;;;;;;;;;8429199;28;20490;-79
2023/03/01 22:39:50;;;;;;;75.10;24.00;;;;;;;;;;8402443;28;20044;-79
2023/03/01 22:43:53;;;;;;;53.17;19.33;;;;;;;;;;8428669;28;20063;-80
2023/03/01 22:47:57;;;;;;;55.00;23.10;;;;;;;;;;8434033;28;20044;-79
2023/03/01 22:52:00;;;;;;;43.03;18.10;;;;;;;;;;8433896;28;20044;-78
2023/03/01 22:56:16;;;;;;;37.40;16.05;;;;;;;;;;8433482;28;20090;-77
2023/03/01 23:00:20;;;;;;;41.08;18.20;;;;;;;;;;8433411;28;20040;-80
2023/03/01 23:04:23;;;;;;;41.95;17.63;;;;;;;;;;8434038;28;20047;-79
2023/03/01 23:08:26;;;;;;;46.03;16.60;;;;;;;;;;8433678;28;20538;-81
2023/03/01 23:12:31;;;;;;;41.88;19.25;;;;;;;;;;8433346;28;20130;-78
2023/03/01 23:16:34;;;;;;;34.72;16.58;;;;;;;;;;8433410;28;20069;-78
2023/03/01 23:20:38;;;;;;;49.10;20.75;;;;;;;;;;8433197;28;20123;-80
2023/03/01 23:24:41;;;;;;;114.95;31.83;;;;;;;;;;8433437;28;20043;-80
2023/03/01 23:28:48;;;;;;;44.72;17.77;;;;;;;;;;8432941;28;20054;-79
2023/03/01 23:32:52;;;;;;;48.08;20.70;;;;;;;;;;8419448;28;20040;-80
2023/03/01 23:36:56;;;;;;;52.08;19.77;;;;;;;;;;8433001;28;20044;-78
2023/03/01 23:40:59;;;;;;;55.80;20.52;;;;;;;;;;8431965;28;20070;-79
2023/03/01 23:45:06;;;;;;;52.20;19.65;;;;;;;;;;8432277;28;20109;-77
2023/03/01 23:49:11;;;;;;;53.45;19.90;;;;;;;;;;8431784;28;20052;-77
2023/03/01 23:53:17;;;;;;;36.45;16.50;;;;;;;;;;8432129;28;20052;-79
2023/03/01 23:57:20;;;;;;;43.33;17.00;;;;;;;;;;8432128;28;20048;-79
